Aviation Digital Data Service (ADDS)

Output produced by METARs form (1523 UTC 19 January 2018)
found at http://aviationweather.gov/adds/metars/
 
KRDU 191120Z 1912/2012 VRB03KT P6SM SKC